Terminal Aerodrome Forecast
Issued by NWS Chicago, IL

Home | Current Version | Previous Version | Graphics & Text | Print | Product List | Glossary On
Versions: 1 2 3 4 5 6 7 8 9 10 11 12 13 14 15 16 17 18 19 20 21 22 23 24 25 26 27 28
000
FTUS43 KLOT 141459 AAA
TAFRFD
TAF AMD
KRFD 141459Z 1415/1512 16008KT P6SM SCT040 BKN150
     FM150100 22005KT P6SM VCSH SCT050 BKN070 PROB30 1502/1505 5SM
      -TSRA OVC040CB
     FM150600 24004KT P6SM SCT050
     FM150900 VRB03KT 3SM BR SCT020
     FM151100 VRB03KT 2SM BR BKN008=

USA.gov is the U.S. government's official web portal to all federal, state and local government web resources and services.